sensor_id;sensor_type;location;lat;lon;timestamp;P1;durP1;ratioP1;P2;durP2;ratioP2
59312;SDS011;45084;51.486;7.366;2023-12-22T00:01:05;6.70;;;1.63;;
59312;SDS011;45084;51.486;7.366;2023-12-22T00:03:31;11.00;;;1.50;;
59312;SDS011;45084;51.486;7.366;2023-12-22T00:05:56;7.28;;;1.40;;
59312;SDS011;45084;51.486;7.366;2023-12-22T00:08:22;4.35;;;1.25;;
59312;SDS011;45084;51.486;7.366;2023-12-22T00:10:48;6.85;;;1.38;;
59312;SDS011;45084;51.486;7.366;2023-12-22T00:13:14;4.28;;;1.42;;
59312;SDS011;45084;51.486;7.366;2023-12-22T00:15:40;5.40;;;1.63;;
59312;SDS011;45084;51.486;7.366;2023-12-22T00:18:07;6.30;;;1.50;;
59312;SDS011;45084;51.486;7.366;2023-12-22T00:20:33;8.90;;;2.15;;
59312;SDS011;45084;51.486;7.366;2023-12-22T00:22:58;7.07;;;1.70;;
59312;SDS011;45084;51.486;7.366;2023-12-22T00:25:24;6.63;;;1.73;;
59312;SDS011;45084;51.486;7.366;2023-12-22T00:27:50;4.03;;;1.65;;
59312;SDS011;45084;51.486;7.366;2023-12-22T00:30:15;8.90;;;1.70;;
59312;SDS011;45084;51.486;7.366;2023-12-22T00:32:41;12.65;;;1.55;;
59312;SDS011;45084;51.486;7.366;2023-12-22T00:35:07;8.95;;;1.52;;
59312;SDS011;45084;51.486;7.366;2023-12-22T00:37:33;8.32;;;1.77;;
59312;SDS011;45084;51.486;7.366;2023-12-22T00:39:59;7.95;;;1.92;;
59312;SDS011;45084;51.486;7.366;2023-12-22T00:42:24;8.15;;;1.58;;
59312;SDS011;45084;51.486;7.366;2023-12-22T00:44:50;12.20;;;2.47;;
59312;SDS011;45084;51.486;7.366;2023-12-22T00:47:16;10.10;;;2.35;;
59312;SDS011;45084;51.486;7.366;2023-12-22T00:49:42;9.07;;;2.38;;
59312;SDS011;45084;51.486;7.366;2023-12-22T00:52:07;8.70;;;2.50;;
59312;SDS011;45084;51.486;7.366;2023-12-22T00:54:33;7.05;;;1.67;;
59312;SDS011;45084;51.486;7.366;2023-12-22T00:56:59;10.10;;;2.05;;
59312;SDS011;45084;51.486;7.366;2023-12-22T00:59:24;7.00;;;1.48;;
59312;SDS011;45084;51.486;7.366;2023-12-22T01:01:50;7.22;;;1.40;;
59312;SDS011;45084;51.486;7.366;2023-12-22T01:04:15;6.55;;;1.80;;
59312;SDS011;45084;51.486;7.366;2023-12-22T01:06:44;7.90;;;1.80;;
59312;SDS011;45084;51.486;7.366;2023-12-22T01:09:09;6.82;;;1.80;;
59312;SDS011;45084;51.486;7.366;2023-12-22T01:11:35;7.50;;;1.73;;
59312;SDS011;45084;51.486;7.366;2023-12-22T01:14:00;6.18;;;1.73;;
59312;SDS011;45084;51.486;7.366;2023-12-22T01:16:29;5.55;;;1.83;;
59312;SDS011;45084;51.486;7.366;2023-12-22T01:18:55;7.35;;;1.25;;
59312;SDS011;45084;51.486;7.366;2023-12-22T01:21:20;8.40;;;1.67;;
59312;SDS011;45084;51.486;7.366;2023-12-22T01:23:46;7.43;;;2.00;;
59312;SDS011;45084;51.486;7.366;2023-12-22T01:26:11;10.55;;;1.77;;
59312;SDS011;45084;51.486;7.366;2023-12-22T01:28:37;10.23;;;2.58;;
59312;SDS011;45084;51.486;7.366;2023-12-22T01:31:02;9.40;;;2.65;;
59312;SDS011;45084;51.486;7.366;2023-12-22T01:33:28;11.38;;;2.38;;
59312;SDS011;45084;51.486;7.366;2023-12-22T01:35:54;8.45;;;2.10;;
59312;SDS011;45084;51.486;7.366;2023-12-22T01:38:20;9.55;;;1.70;;
59312;SDS011;45084;51.486;7.366;2023-12-22T01:40:46;8.70;;;1.90;;
59312;SDS011;45084;51.486;7.366;2023-12-22T01:43:12;10.27;;;1.83;;
59312;SDS011;45084;51.486;7.366;2023-12-22T01:45:39;9.05;;;2.10;;
59312;SDS011;45084;51.486;7.366;2023-12-22T01:48:08;6.85;;;1.70;;
59312;SDS011;45084;51.486;7.366;2023-12-22T01:50:34;12.88;;;2.45;;
59312;SDS011;45084;51.486;7.366;2023-12-22T01:53:01;10.65;;;2.00;;
59312;SDS011;45084;51.486;7.366;2023-12-22T01:55:27;9.95;;;1.98;;
59312;SDS011;45084;51.486;7.366;2023-12-22T01:57:54;5.20;;;1.80;;
59312;SDS011;45084;51.486;7.366;2023-12-22T02:00:20;8.55;;;1.90;;
59312;SDS011;45084;51.486;7.366;2023-12-22T02:02:47;3.63;;;1.40;;
59312;SDS011;45084;51.486;7.366;2023-12-22T02:05:13;13.10;;;1.75;;
59312;SDS011;45084;51.486;7.366;2023-12-22T02:07:38;1.67;;;0.95;;
59312;SDS011;45084;51.486;7.366;2023-12-22T02:10:09;4.20;;;0.98;;
59312;SDS011;45084;51.486;7.366;2023-12-22T02:12:36;4.43;;;1.10;;
59312;SDS011;45084;51.486;7.366;2023-12-22T02:15:02;2.83;;;1.00;;
59312;SDS011;45084;51.486;7.366;2023-12-22T02:17:32;7.75;;;1.30;;
59312;SDS011;45084;51.486;7.366;2023-12-22T02:20:21;5.13;;;1.25;;
59312;SDS011;45084;51.486;7.366;2023-12-22T02:22:50;3.95;;;0.70;;
59312;SDS011;45084;51.486;7.366;2023-12-22T02:25:17;3.03;;;0.90;;
59312;SDS011;45084;51.486;7.366;2023-12-22T02:27:50;4.03;;;0.85;;
59312;SDS011;45084;51.486;7.366;2023-12-22T02:33:03;3.28;;;1.40;;
59312;SDS011;45084;51.486;7.366;2023-12-22T02:35:32;1.58;;;0.70;;
59312;SDS011;45084;51.486;7.366;2023-12-22T02:38:00;3.28;;;0.82;;
59312;SDS011;45084;51.486;7.366;2023-12-22T02:40:28;3.22;;;1.05;;
59312;SDS011;45084;51.486;7.366;2023-12-22T02:42:54;2.80;;;1.02;;
59312;SDS011;45084;51.486;7.366;2023-12-22T02:45:20;4.07;;;1.10;;
59312;SDS011;45084;51.486;7.366;2023-12-22T02:47:46;5.70;;;1.15;;
59312;SDS011;45084;51.486;7.366;2023-12-22T02:50:12;3.35;;;1.20;;
59312;SDS011;45084;51.486;7.366;2023-12-22T02:52:40;4.57;;;1.40;;
59312;SDS011;45084;51.486;7.366;2023-12-22T02:55:06;5.40;;;1.20;;
59312;SDS011;45084;51.486;7.366;2023-12-22T02:57:31;5.00;;;1.10;;
59312;SDS011;45084;51.486;7.366;2023-12-22T02:59:57;5.45;;;1.15;;
59312;SDS011;45084;51.486;7.366;2023-12-22T03:02:23;5.63;;;1.35;;
59312;SDS011;45084;51.486;7.366;2023-12-22T03:04:49;3.50;;;0.98;;
59312;SDS011;45084;51.486;7.366;2023-12-22T03:07:14;3.97;;;1.20;;
59312;SDS011;45084;51.486;7.366;2023-12-22T03:09:40;1.73;;;0.98;;
59312;SDS011;45084;51.486;7.366;2023-12-22T03:12:07;7.60;;;1.02;;
59312;SDS011;45084;51.486;7.366;2023-12-22T03:14:33;5.03;;;1.10;;
59312;SDS011;45084;51.486;7.366;2023-12-22T03:16:59;1.67;;;0.82;;
59312;SDS011;45084;51.486;7.366;2023-12-22T03:19:43;6.93;;;1.45;;
59312;SDS011;45084;51.486;7.366;2023-12-22T03:22:08;7.68;;;1.27;;
59312;SDS011;45084;51.486;7.366;2023-12-22T03:24:34;3.47;;;1.33;;
59312;SDS011;45084;51.486;7.366;2023-12-22T03:27:01;5.18;;;1.08;;
59312;SDS011;45084;51.486;7.366;2023-12-22T03:29:27;11.82;;;1.48;;
59312;SDS011;45084;51.486;7.366;2023-12-22T03:31:52;10.13;;;1.35;;
59312;SDS011;45084;51.486;7.366;2023-12-22T03:34:18;5.28;;;1.77;;
59312;SDS011;45084;51.486;7.366;2023-12-22T03:36:44;4.88;;;1.80;;
59312;SDS011;45084;51.486;7.366;2023-12-22T03:39:13;7.85;;;1.42;;
59312;SDS011;45084;51.486;7.366;2023-12-22T03:41:40;8.32;;;2.10;;
59312;SDS011;45084;51.486;7.366;2023-12-22T03:44:05;8.68;;;1.45;;
59312;SDS011;45084;51.486;7.366;2023-12-22T03:46:31;7.93;;;1.48;;
59312;SDS011;45084;51.486;7.366;2023-12-22T03:48:57;5.57;;;1.80;;
59312;SDS011;45084;51.486;7.366;2023-12-22T03:51:23;10.07;;;1.90;;
59312;SDS011;45084;51.486;7.366;2023-12-22T03:53:49;11.52;;;1.83;;
59312;SDS011;45084;51.486;7.366;2023-12-22T03:56:14;13.27;;;1.88;;
59312;SDS011;45084;51.486;7.366;2023-12-22T03:58:40;5.32;;;1.40;;
59312;SDS011;45084;51.486;7.366;2023-12-22T04:01:05;6.78;;;1.83;;
59312;SDS011;45084;51.486;7.366;2023-12-22T04:03:34;10.90;;;2.10;;
59312;SDS011;45084;51.486;7.366;2023-12-22T04:06:03;6.28;;;1.75;;
59312;SDS011;45084;51.486;7.366;2023-12-22T04:08:29;11.40;;;2.50;;
59312;SDS011;45084;51.486;7.366;2023-12-22T04:10:55;5.68;;;1.30;;
59312;SDS011;45084;51.486;7.366;2023-12-22T04:13:20;9.13;;;2.35;;
59312;SDS011;45084;51.486;7.366;2023-12-22T04:15:46;6.30;;;1.15;;
59312;SDS011;45084;51.486;7.366;2023-12-22T04:18:12;6.28;;;1.38;;
59312;SDS011;45084;51.486;7.366;2023-12-22T04:20:37;6.00;;;1.00;;
59312;SDS011;45084;51.486;7.366;2023-12-22T04:23:03;5.10;;;1.10;;
59312;SDS011;45084;51.486;7.366;2023-12-22T04:25:29;3.03;;;0.70;;
59312;SDS011;45084;51.486;7.366;2023-12-22T04:27:54;1.80;;;0.68;;
59312;SDS011;45084;51.486;7.366;2023-12-22T04:30:20;5.97;;;0.70;;
59312;SDS011;45084;51.486;7.366;2023-12-22T04:32:45;0.77;;;0.50;;
59312;SDS011;45084;51.486;7.366;2023-12-22T04:35:11;2.33;;;0.88;;
59312;SDS011;45084;51.486;7.366;2023-12-22T04:37:37;3.40;;;0.70;;
59312;SDS011;45084;51.486;7.366;2023-12-22T04:40:02;7.28;;;0.85;;
59312;SDS011;45084;51.486;7.366;2023-12-22T04:42:28;5.90;;;1.05;;
59312;SDS011;45084;51.486;7.366;2023-12-22T04:44:54;2.13;;;1.05;;
59312;SDS011;45084;51.486;7.366;2023-12-22T04:47:19;9.77;;;1.27;;
59312;SDS011;45084;51.486;7.366;2023-12-22T04:49:45;6.05;;;1.00;;
59312;SDS011;45084;51.486;7.366;2023-12-22T04:52:11;5.45;;;1.63;;
59312;SDS011;45084;51.486;7.366;2023-12-22T04:54:37;5.53;;;1.58;;
59312;SDS011;45084;51.486;7.366;2023-12-22T04:57:03;2.22;;;0.70;;
59312;SDS011;45084;51.486;7.366;2023-12-22T04:59:29;5.00;;;0.88;;
59312;SDS011;45084;51.486;7.366;2023-12-22T05:01:55;3.90;;;1.15;;
59312;SDS011;45084;51.486;7.366;2023-12-22T05:04:20;3.63;;;0.88;;
59312;SDS011;45084;51.486;7.366;2023-12-22T05:06:47;11.05;;;1.58;;
59312;SDS011;45084;51.486;7.366;2023-12-22T05:09:13;4.07;;;1.63;;
59312;SDS011;45084;51.486;7.366;2023-12-22T05:11:38;8.57;;;1.50;;
59312;SDS011;45084;51.486;7.366;2023-12-22T05:14:04;5.47;;;1.23;;
59312;SDS011;45084;51.486;7.366;2023-12-22T05:16:30;4.95;;;1.27;;
59312;SDS011;45084;51.486;7.366;2023-12-22T05:18:59;4.65;;;1.20;;
59312;SDS011;45084;51.486;7.366;2023-12-22T05:21:25;7.05;;;1.25;;
59312;SDS011;45084;51.486;7.366;2023-12-22T05:23:50;4.97;;;1.38;;
59312;SDS011;45084;51.486;7.366;2023-12-22T05:26:17;6.45;;;1.33;;
59312;SDS011;45084;51.486;7.366;2023-12-22T05:28:43;7.68;;;1.55;;
59312;SDS011;45084;51.486;7.366;2023-12-22T05:31:09;3.90;;;1.23;;
59312;SDS011;45084;51.486;7.366;2023-12-22T05:33:34;5.53;;;1.45;;
59312;SDS011;45084;51.486;7.366;2023-12-22T05:36:00;5.68;;;1.42;;
59312;SDS011;45084;51.486;7.366;2023-12-22T05:38:26;4.03;;;0.93;;
59312;SDS011;45084;51.486;7.366;2023-12-22T05:40:51;7.60;;;1.20;;
59312;SDS011;45084;51.486;7.366;2023-12-22T05:43:17;7.13;;;1.63;;
59312;SDS011;45084;51.486;7.366;2023-12-22T05:45:42;6.68;;;1.30;;
59312;SDS011;45084;51.486;7.366;2023-12-22T05:48:08;5.10;;;1.80;;
59312;SDS011;45084;51.486;7.366;2023-12-22T05:50:33;7.00;;;1.75;;
59312;SDS011;45084;51.486;7.366;2023-12-22T05:52:59;4.85;;;1.25;;
59312;SDS011;45084;51.486;7.366;2023-12-22T05:55:25;8.40;;;1.05;;
59312;SDS011;45084;51.486;7.366;2023-12-22T05:57:51;8.48;;;1.25;;
59312;SDS011;45084;51.486;7.366;2023-12-22T06:00:19;4.57;;;1.30;;
59312;SDS011;45084;51.486;7.366;2023-12-22T06:02:45;9.63;;;1.50;;
59312;SDS011;45084;51.486;7.366;2023-12-22T06:05:11;11.65;;;1.65;;
59312;SDS011;45084;51.486;7.366;2023-12-22T06:07:40;6.75;;;1.30;;
59312;SDS011;45084;51.486;7.366;2023-12-22T06:10:06;10.32;;;1.63;;
59312;SDS011;45084;51.486;7.366;2023-12-22T06:12:34;10.35;;;1.77;;
59312;SDS011;45084;51.486;7.366;2023-12-22T06:15:00;10.63;;;2.63;;
59312;SDS011;45084;51.486;7.366;2023-12-22T06:17:25;8.45;;;1.85;;
59312;SDS011;45084;51.486;7.366;2023-12-22T06:19:51;8.60;;;2.30;;
59312;SDS011;45084;51.486;7.366;2023-12-22T06:22:16;8.65;;;2.30;;
59312;SDS011;45084;51.486;7.366;2023-12-22T06:24:42;7.10;;;1.88;;
59312;SDS011;45084;51.486;7.366;2023-12-22T06:27:08;8.18;;;1.52;;
59312;SDS011;45084;51.486;7.366;2023-12-22T06:29:34;8.30;;;1.85;;
59312;SDS011;45084;51.486;7.366;2023-12-22T06:31:59;8.05;;;2.00;;
59312;SDS011;45084;51.486;7.366;2023-12-22T06:34:25;9.90;;;1.70;;
59312;SDS011;45084;51.486;7.366;2023-12-22T06:36:50;9.63;;;1.95;;
59312;SDS011;45084;51.486;7.366;2023-12-22T06:39:16;8.95;;;2.22;;
59312;SDS011;45084;51.486;7.366;2023-12-22T06:41:42;12.35;;;1.92;;
59312;SDS011;45084;51.486;7.366;2023-12-22T06:44:07;11.60;;;2.28;;
59312;SDS011;45084;51.486;7.366;2023-12-22T06:46:35;12.73;;;2.47;;
59312;SDS011;45084;51.486;7.366;2023-12-22T06:49:01;16.90;;;2.47;;
59312;SDS011;45084;51.486;7.366;2023-12-22T06:51:28;8.30;;;2.03;;
59312;SDS011;45084;51.486;7.366;2023-12-22T06:54:00;16.48;;;2.60;;
59312;SDS011;45084;51.486;7.366;2023-12-22T06:56:29;10.63;;;1.92;;
59312;SDS011;45084;51.486;7.366;2023-12-22T06:58:56;7.88;;;1.77;;
59312;SDS011;45084;51.486;7.366;2023-12-22T07:01:29;6.55;;;2.20;;
59312;SDS011;45084;51.486;7.366;2023-12-22T07:03:59;7.28;;;2.15;;
59312;SDS011;45084;51.486;7.366;2023-12-22T07:06:29;9.23;;;1.88;;
59312;SDS011;45084;51.486;7.366;2023-12-22T07:09:41;12.23;;;1.92;;
59312;SDS011;45084;51.486;7.366;2023-12-22T07:11:46;6.57;;;1.80;;
59312;SDS011;45084;51.486;7.366;2023-12-22T07:14:16;4.10;;;1.67;;
59312;SDS011;45084;51.486;7.366;2023-12-22T07:16:42;10.68;;;1.65;;
59312;SDS011;45084;51.486;7.366;2023-12-22T07:19:08;13.45;;;2.17;;
59312;SDS011;45084;51.486;7.366;2023-12-22T07:21:34;9.00;;;2.08;;
59312;SDS011;45084;51.486;7.366;2023-12-22T07:24:00;7.53;;;2.00;;
59312;SDS011;45084;51.486;7.366;2023-12-22T07:26:28;8.90;;;2.17;;
59312;SDS011;45084;51.486;7.366;2023-12-22T07:28:54;11.43;;;2.33;;
59312;SDS011;45084;51.486;7.366;2023-12-22T07:31:20;14.65;;;2.50;;
59312;SDS011;45084;51.486;7.366;2023-12-22T07:33:45;12.93;;;2.50;;
59312;SDS011;45084;51.486;7.366;2023-12-22T07:36:11;13.70;;;2.60;;
59312;SDS011;45084;51.486;7.366;2023-12-22T07:38:37;11.75;;;3.22;;
59312;SDS011;45084;51.486;7.366;2023-12-22T07:41:06;16.05;;;3.53;;
59312;SDS011;45084;51.486;7.366;2023-12-22T07:43:32;12.93;;;3.25;;
59312;SDS011;45084;51.486;7.366;2023-12-22T07:45:58;12.95;;;3.22;;
59312;SDS011;45084;51.486;7.366;2023-12-22T07:48:23;11.60;;;3.17;;
59312;SDS011;45084;51.486;7.366;2023-12-22T07:50:49;17.05;;;2.97;;
59312;SDS011;45084;51.486;7.366;2023-12-22T07:53:15;14.00;;;3.03;;
59312;SDS011;45084;51.486;7.366;2023-12-22T07:55:41;8.80;;;2.33;;
59312;SDS011;45084;51.486;7.366;2023-12-22T07:58:08;16.05;;;2.80;;
59312;SDS011;45084;51.486;7.366;2023-12-22T08:00:33;6.95;;;2.35;;
59312;SDS011;45084;51.486;7.366;2023-12-22T08:03:02;10.60;;;2.50;;
59312;SDS011;45084;51.486;7.366;2023-12-22T08:08:04;8.48;;;2.63;;
59312;SDS011;45084;51.486;7.366;2023-12-22T08:10:29;5.25;;;1.90;;
59312;SDS011;45084;51.486;7.366;2023-12-22T08:12:55;10.07;;;2.30;;
59312;SDS011;45084;51.486;7.366;2023-12-22T08:15:21;10.52;;;2.47;;
59312;SDS011;45084;51.486;7.366;2023-12-22T08:17:50;8.05;;;2.28;;
59312;SDS011;45084;51.486;7.366;2023-12-22T08:20:22;10.90;;;3.00;;
59312;SDS011;45084;51.486;7.366;2023-12-22T08:22:48;9.32;;;2.60;;
59312;SDS011;45084;51.486;7.366;2023-12-22T08:25:14;13.20;;;2.85;;
59312;SDS011;45084;51.486;7.366;2023-12-22T08:27:41;8.98;;;2.83;;
59312;SDS011;45084;51.486;7.366;2023-12-22T08:30:07;14.55;;;3.53;;
59312;SDS011;45084;51.486;7.366;2023-12-22T08:32:34;16.60;;;2.70;;
59312;SDS011;45084;51.486;7.366;2023-12-22T08:34:59;14.13;;;3.13;;
59312;SDS011;45084;51.486;7.366;2023-12-22T08:37:25;16.90;;;3.55;;
59312;SDS011;45084;51.486;7.366;2023-12-22T08:39:51;19.30;;;3.80;;
59312;SDS011;45084;51.486;7.366;2023-12-22T08:42:17;14.60;;;3.38;;
59312;SDS011;45084;51.486;7.366;2023-12-22T08:44:43;16.92;;;4.50;;
59312;SDS011;45084;51.486;7.366;2023-12-22T08:47:09;22.88;;;4.10;;
59312;SDS011;45084;51.486;7.366;2023-12-22T08:49:35;21.88;;;4.35;;
59312;SDS011;45084;51.486;7.366;2023-12-22T08:52:01;22.17;;;4.70;;
59312;SDS011;45084;51.486;7.366;2023-12-22T08:54:29;20.20;;;4.28;;
59312;SDS011;45084;51.486;7.366;2023-12-22T08:56:55;14.43;;;3.83;;
59312;SDS011;45084;51.486;7.366;2023-12-22T08:59:20;13.02;;;4.00;;
59312;SDS011;45084;51.486;7.366;2023-12-22T09:01:46;15.85;;;4.43;;
59312;SDS011;45084;51.486;7.366;2023-12-22T09:04:12;13.68;;;3.42;;
59312;SDS011;45084;51.486;7.366;2023-12-22T09:06:38;21.50;;;4.63;;
59312;SDS011;45084;51.486;7.366;2023-12-22T09:09:04;19.92;;;4.50;;
59312;SDS011;45084;51.486;7.366;2023-12-22T09:11:31;16.15;;;4.22;;
59312;SDS011;45084;51.486;7.366;2023-12-22T09:13:56;16.77;;;4.65;;
59312;SDS011;45084;51.486;7.366;2023-12-22T09:18:58;18.55;;;4.70;;
59312;SDS011;45084;51.486;7.366;2023-12-22T09:21:24;19.75;;;4.97;;
59312;SDS011;45084;51.486;7.366;2023-12-22T09:26:51;26.40;;;5.55;;
59312;SDS011;45084;51.486;7.366;2023-12-22T09:29:31;21.98;;;4.93;;
59312;SDS011;45084;51.486;7.366;2023-12-22T09:31:58;26.45;;;5.70;;
59312;SDS011;45084;51.486;7.366;2023-12-22T09:34:25;13.95;;;3.92;;
59312;SDS011;45084;51.486;7.366;2023-12-22T09:36:52;13.75;;;4.03;;
59312;SDS011;45084;51.486;7.366;2023-12-22T09:39:17;19.70;;;3.55;;
59312;SDS011;45084;51.486;7.366;2023-12-22T09:41:44;15.80;;;3.80;;
59312;SDS011;45084;51.486;7.366;2023-12-22T09:44:16;12.38;;;3.08;;
59312;SDS011;45084;51.486;7.366;2023-12-22T09:46:46;10.70;;;3.25;;
59312;SDS011;45084;51.486;7.366;2023-12-22T09:49:14;11.73;;;2.88;;
59312;SDS011;45084;51.486;7.366;2023-12-22T09:51:40;13.25;;;3.08;;
59312;SDS011;45084;51.486;7.366;2023-12-22T09:54:06;12.63;;;3.15;;
59312;SDS011;45084;51.486;7.366;2023-12-22T09:56:32;16.20;;;3.13;;
59312;SDS011;45084;51.486;7.366;2023-12-22T09:58:59;6.40;;;2.40;;
59312;SDS011;45084;51.486;7.366;2023-12-22T10:01:27;18.40;;;3.53;;
59312;SDS011;45084;51.486;7.366;2023-12-22T10:03:54;15.43;;;3.00;;
59312;SDS011;45084;51.486;7.366;2023-12-22T10:06:28;15.25;;;3.03;;
59312;SDS011;45084;51.486;7.366;2023-12-22T10:09:03;11.27;;;3.00;;
59312;SDS011;45084;51.486;7.366;2023-12-22T11:45:48;5.20;;;1.85;;
59312;SDS011;45084;51.486;7.366;2023-12-22T11:48:25;2.97;;;1.30;;
59312;SDS011;45084;51.486;7.366;2023-12-22T12:01:29;5.45;;;1.55;;
59312;SDS011;45084;51.486;7.366;2023-12-22T12:04:20;7.50;;;2.00;;
59312;SDS011;45084;51.486;7.366;2023-12-22T12:06:49;2.47;;;1.60;;
59312;SDS011;45084;51.486;7.366;2023-12-22T12:22:18;3.15;;;1.73;;
59312;SDS011;45084;51.486;7.366;2023-12-22T12:24:54;4.32;;;1.60;;
59312;SDS011;45084;51.486;7.366;2023-12-22T12:27:33;1.08;;;0.75;;
59312;SDS011;45084;51.486;7.366;2023-12-22T12:35:23;4.22;;;0.95;;
59312;SDS011;45084;51.486;7.366;2023-12-22T12:40:57;2.88;;;1.00;;
59312;SDS011;45084;51.486;7.366;2023-12-22T12:43:50;2.00;;;1.20;;
59312;SDS011;45084;51.486;7.366;2023-12-22T12:49:12;2.42;;;1.80;;
59312;SDS011;45084;51.486;7.366;2023-12-22T14:23:30;2.45;;;1.48;;
59312;SDS011;45084;51.486;7.366;2023-12-22T14:31:35;4.60;;;1.42;;
59312;SDS011;45084;51.486;7.366;2023-12-22T14:36:49;5.93;;;1.65;;
59312;SDS011;45084;51.486;7.366;2023-12-22T14:39:17;6.35;;;1.70;;
59312;SDS011;45084;51.486;7.366;2023-12-22T14:44:18;4.07;;;1.38;;
59312;SDS011;45084;51.486;7.366;2023-12-22T14:49:19;6.25;;;1.70;;
59312;SDS011;45084;51.486;7.366;2023-12-22T14:51:45;7.45;;;1.88;;
59312;SDS011;45084;51.486;7.366;2023-12-22T14:54:22;4.63;;;1.70;;
59312;SDS011;45084;51.486;7.366;2023-12-22T14:56:48;7.57;;;2.00;;
59312;SDS011;45084;51.486;7.366;2023-12-22T14:59:14;8.35;;;1.70;;
59312;SDS011;45084;51.486;7.366;2023-12-22T15:01:45;2.35;;;1.30;;
59312;SDS011;45084;51.486;7.366;2023-12-22T15:04:10;2.33;;;1.42;;
59312;SDS011;45084;51.486;7.366;2023-12-22T15:06:39;8.63;;;1.50;;
59312;SDS011;45084;51.486;7.366;2023-12-22T15:09:06;1.80;;;1.17;;
59312;SDS011;45084;51.486;7.366;2023-12-22T15:11:32;4.57;;;1.20;;
59312;SDS011;45084;51.486;7.366;2023-12-22T15:13:58;3.30;;;1.33;;
59312;SDS011;45084;51.486;7.366;2023-12-22T15:16:24;2.20;;;1.23;;
59312;SDS011;45084;51.486;7.366;2023-12-22T15:18:50;4.40;;;1.60;;
59312;SDS011;45084;51.486;7.366;2023-12-22T15:21:22;5.03;;;1.83;;
59312;SDS011;45084;51.486;7.366;2023-12-22T15:52:17;3.17;;;1.10;;
59312;SDS011;45084;51.486;7.366;2023-12-22T15:54:43;4.40;;;1.40;;
59312;SDS011;45084;51.486;7.366;2023-12-22T15:57:09;4.82;;;1.20;;
59312;SDS011;45084;51.486;7.366;2023-12-22T15:59:35;2.40;;;0.98;;
59312;SDS011;45084;51.486;7.366;2023-12-22T16:02:15;2.90;;;1.60;;
59312;SDS011;45084;51.486;7.366;2023-12-22T16:04:41;2.22;;;1.10;;
59312;SDS011;45084;51.486;7.366;2023-12-22T16:07:22;2.65;;;0.98;;
59312;SDS011;45084;51.486;7.366;2023-12-22T16:09:51;10.25;;;1.85;;
59312;SDS011;45084;51.486;7.366;2023-12-22T16:12:17;9.10;;;1.80;;
59312;SDS011;45084;51.486;7.366;2023-12-22T16:14:43;3.70;;;1.58;;
59312;SDS011;45084;51.486;7.366;2023-12-22T16:17:08;7.13;;;1.60;;
59312;SDS011;45084;51.486;7.366;2023-12-22T16:19:37;7.07;;;2.15;;
59312;SDS011;45084;51.486;7.366;2023-12-22T16:22:06;6.90;;;2.10;;
59312;SDS011;45084;51.486;7.366;2023-12-22T16:24:37;6.95;;;2.45;;
59312;SDS011;45084;51.486;7.366;2023-12-22T16:27:04;8.68;;;2.78;;
59312;SDS011;45084;51.486;7.366;2023-12-22T16:29:30;5.95;;;2.15;;
59312;SDS011;45084;51.486;7.366;2023-12-22T16:31:58;3.78;;;1.65;;
59312;SDS011;45084;51.486;7.366;2023-12-22T16:34:26;9.80;;;2.50;;
59312;SDS011;45084;51.486;7.366;2023-12-22T17:05:23;7.10;;;2.00;;
59312;SDS011;45084;51.486;7.366;2023-12-22T17:07:49;6.75;;;2.15;;
59312;SDS011;45084;51.486;7.366;2023-12-22T17:10:15;9.18;;;2.42;;
59312;SDS011;45084;51.486;7.366;2023-12-22T17:12:43;7.97;;;2.28;;
59312;SDS011;45084;51.486;7.366;2023-12-22T17:15:09;11.60;;;2.30;;
59312;SDS011;45084;51.486;7.366;2023-12-22T17:17:37;7.45;;;2.28;;
59312;SDS011;45084;51.486;7.366;2023-12-22T17:20:04;7.68;;;2.20;;
59312;SDS011;45084;51.486;7.366;2023-12-22T17:22:36;9.02;;;2.38;;
59312;SDS011;45084;51.486;7.366;2023-12-22T17:25:02;8.48;;;2.63;;
59312;SDS011;45084;51.486;7.366;2023-12-22T17:27:29;8.25;;;2.08;;
59312;SDS011;45084;51.486;7.366;2023-12-22T17:29:54;7.95;;;2.08;;
59312;SDS011;45084;51.486;7.366;2023-12-22T17:32:20;6.15;;;1.85;;
59312;SDS011;45084;51.486;7.366;2023-12-22T17:34:53;7.43;;;1.95;;
59312;SDS011;45084;51.486;7.366;2023-12-22T17:37:18;9.25;;;2.15;;
59312;SDS011;45084;51.486;7.366;2023-12-22T17:39:44;5.38;;;1.38;;
59312;SDS011;45084;51.486;7.366;2023-12-22T17:42:10;2.60;;;1.13;;
59312;SDS011;45084;51.486;7.366;2023-12-22T17:44:35;1.75;;;0.90;;
59312;SDS011;45084;51.486;7.366;2023-12-22T17:47:01;1.40;;;0.57;;
59312;SDS011;45084;51.486;7.366;2023-12-22T17:49:28;0.82;;;0.65;;
59312;SDS011;45084;51.486;7.366;2023-12-22T17:51:55;1.08;;;0.70;;
59312;SDS011;45084;51.486;7.366;2023-12-22T17:54:20;1.20;;;0.80;;
59312;SDS011;45084;51.486;7.366;2023-12-22T17:56:46;2.28;;;0.88;;
59312;SDS011;45084;51.486;7.366;2023-12-22T17:59:12;3.17;;;0.57;;
59312;SDS011;45084;51.486;7.366;2023-12-22T18:01:40;2.60;;;0.80;;
59312;SDS011;45084;51.486;7.366;2023-12-22T18:04:06;3.13;;;0.93;;
59312;SDS011;45084;51.486;7.366;2023-12-22T18:06:33;0.93;;;0.80;;
59312;SDS011;45084;51.486;7.366;2023-12-22T18:08:59;2.10;;;0.90;;
59312;SDS011;45084;51.486;7.366;2023-12-22T18:11:24;1.55;;;0.95;;
59312;SDS011;45084;51.486;7.366;2023-12-22T18:13:50;3.13;;;0.93;;
59312;SDS011;45084;51.486;7.366;2023-12-22T18:16:18;1.55;;;1.02;;
59312;SDS011;45084;51.486;7.366;2023-12-22T18:18:46;4.22;;;0.73;;
59312;SDS011;45084;51.486;7.366;2023-12-22T18:21:11;1.35;;;0.68;;
59312;SDS011;45084;51.486;7.366;2023-12-22T18:23:38;2.38;;;0.80;;
59312;SDS011;45084;51.486;7.366;2023-12-22T18:26:04;2.53;;;0.80;;
59312;SDS011;45084;51.486;7.366;2023-12-22T18:28:31;3.33;;;1.10;;
59312;SDS011;45084;51.486;7.366;2023-12-22T18:30:56;4.35;;;0.93;;
59312;SDS011;45084;51.486;7.366;2023-12-22T18:33:22;5.55;;;1.40;;
59312;SDS011;45084;51.486;7.366;2023-12-22T18:35:50;4.35;;;0.70;;
59312;SDS011;45084;51.486;7.366;2023-12-22T18:38:20;2.22;;;1.13;;
59312;SDS011;45084;51.486;7.366;2023-12-22T18:40:47;5.90;;;1.13;;
59312;SDS011;45084;51.486;7.366;2023-12-22T18:43:12;3.75;;;1.20;;
59312;SDS011;45084;51.486;7.366;2023-12-22T18:45:41;3.58;;;1.30;;
59312;SDS011;45084;51.486;7.366;2023-12-22T18:48:07;3.53;;;1.10;;
59312;SDS011;45084;51.486;7.366;2023-12-22T18:50:33;3.85;;;1.20;;
59312;SDS011;45084;51.486;7.366;2023-12-22T18:52:58;5.95;;;1.48;;
59312;SDS011;45084;51.486;7.366;2023-12-22T18:55:27;5.22;;;1.38;;
59312;SDS011;45084;51.486;7.366;2023-12-22T18:57:53;4.05;;;1.42;;
59312;SDS011;45084;51.486;7.366;2023-12-22T19:00:19;1.63;;;1.23;;
59312;SDS011;45084;51.486;7.366;2023-12-22T19:02:44;2.53;;;1.75;;
59312;SDS011;45084;51.486;7.366;2023-12-22T19:05:10;3.80;;;3.13;;
59312;SDS011;45084;51.486;7.366;2023-12-22T19:07:36;6.32;;;2.75;;
59312;SDS011;45084;51.486;7.366;2023-12-22T19:10:02;4.95;;;1.83;;
59312;SDS011;45084;51.486;7.366;2023-12-22T19:12:28;6.35;;;2.22;;
59312;SDS011;45084;51.486;7.366;2023-12-22T19:14:54;4.60;;;1.85;;
59312;SDS011;45084;51.486;7.366;2023-12-22T19:17:19;2.78;;;1.27;;
59312;SDS011;45084;51.486;7.366;2023-12-22T19:19:45;3.45;;;1.50;;
59312;SDS011;45084;51.486;7.366;2023-12-22T19:22:11;8.63;;;2.50;;
59312;SDS011;45084;51.486;7.366;2023-12-22T19:24:36;5.18;;;1.55;;
59312;SDS011;45084;51.486;7.366;2023-12-22T19:27:02;3.67;;;1.83;;
59312;SDS011;45084;51.486;7.366;2023-12-22T19:29:28;2.30;;;1.60;;
59312;SDS011;45084;51.486;7.366;2023-12-22T19:31:53;3.28;;;1.67;;
59312;SDS011;45084;51.486;7.366;2023-12-22T19:34:19;7.03;;;1.40;;
59312;SDS011;45084;51.486;7.366;2023-12-22T19:36:45;4.25;;;1.40;;
59312;SDS011;45084;51.486;7.366;2023-12-22T19:39:11;6.25;;;1.73;;
59312;SDS011;45084;51.486;7.366;2023-12-22T19:41:36;2.95;;;1.48;;
59312;SDS011;45084;51.486;7.366;2023-12-22T19:44:02;4.97;;;1.75;;
59312;SDS011;45084;51.486;7.366;2023-12-22T19:46:28;9.30;;;2.40;;